createdAt,value
2022-12-27T00:00:44.484Z,99629.50
2022-12-27T00:06:07.181Z,99647.19
2022-12-27T00:11:16.333Z,99649.45
2022-12-27T00:16:21.423Z,99651.48
2022-12-27T00:21:25.026Z,99682.01
2022-12-27T00:26:31.182Z,99706.70
2022-12-27T00:31:34.366Z,99733.29
2022-12-27T00:36:37.382Z,99734.67
2022-12-27T00:41:40.154Z,99745.45
2022-12-27T00:46:42.821Z,99742.31
2022-12-27T00:51:45.533Z,99748.80
2022-12-27T00:56:48.264Z,99746.13
2022-12-27T01:01:51.236Z,99745.45
2022-12-27T01:06:54.200Z,99765.98
2022-12-27T01:11:56.943Z,99767.64
2022-12-27T01:16:59.861Z,99786.60
2022-12-27T01:22:03.712Z,99794.61
2022-12-27T01:27:06.460Z,99770.86
2022-12-27T01:32:09.514Z,99782.11
2022-12-27T01:37:12.304Z,99787.92
2022-12-27T01:42:36.015Z,99782.87
2022-12-27T01:47:53.670Z,99785.43
2022-12-27T01:53:06.838Z,99779.15
2022-12-27T01:58:50.037Z,99785.65
2022-12-27T02:03:57.973Z,99794.52
2022-12-27T02:09:33.038Z,99808.67
2022-12-27T02:14:43.112Z,99825.36
2022-12-27T02:20:14.008Z,99821.48
2022-12-27T02:25:33.092Z,99824.90
2022-12-27T02:30:37.163Z,99830.80
2022-12-27T02:35:42.639Z,99841.71
2022-12-27T02:41:05.938Z,99842.71
2022-12-27T02:46:36.609Z,99853.89
2022-12-27T02:52:04.164Z,99846.46
2022-12-27T02:57:14.745Z,99849.11
2022-12-27T03:02:54.332Z,99852.30
2022-12-27T03:08:35.105Z,99853.98
2022-12-27T03:14:05.729Z,99852.48
2022-12-27T03:19:39.683Z,99854.25
2022-12-27T03:25:01.802Z,99864.18
2022-12-27T03:30:27.555Z,99878.48
2022-12-27T03:35:33.524Z,99878.45
2022-12-27T03:41:20.182Z,99886.55
2022-12-27T03:46:34.274Z,99887.17
2022-12-27T03:51:50.235Z,99892.73
2022-12-27T03:56:59.567Z,99900.48
2022-12-27T04:02:04.026Z,99901.11
2022-12-27T04:07:07.424Z,99911.61
2022-12-27T04:12:28.994Z,99918.87
2022-12-27T04:17:50.690Z,99929.61
2022-12-27T04:23:12.064Z,99934.14
2022-12-27T04:28:33.595Z,99940.06
2022-12-27T04:33:55.300Z,99950.07
2022-12-27T04:38:58.050Z,99953.16
2022-12-27T04:44:19.604Z,99962.13
2022-12-27T04:49:44.034Z,99968.04
2022-12-27T04:54:58.868Z,99972.38
2022-12-27T05:00:20.373Z,99976.55
2022-12-27T05:05:24.771Z,99972.75
2022-12-27T05:10:46.499Z,99977.60
2022-12-27T05:15:49.952Z,99989.31
2022-12-27T05:20:53.241Z,99998.39
2022-12-27T05:25:56.183Z,99997.24
2022-12-27T05:31:02.924Z,100010.14
2022-12-27T05:36:06.458Z,100019.58
2022-12-27T05:41:09.347Z,100028.85
2022-12-27T05:46:15.675Z,100037.46
2022-12-27T05:51:21.057Z,100044.71
2022-12-27T05:56:23.863Z,100051.27
2022-12-27T06:01:26.587Z,100055.41
2022-12-27T06:06:29.508Z,100062.15
2022-12-27T06:11:32.620Z,100064.41
2022-12-27T06:16:37.199Z,100067.48
2022-12-27T06:21:40.927Z,100076.27
2022-12-27T06:26:43.825Z,100075.21
2022-12-27T06:31:47.214Z,100080.12
2022-12-27T06:36:51.514Z,100088.33
2022-12-27T06:41:55.385Z,100091.30
2022-12-27T06:46:58.109Z,100096.27
2022-12-27T06:52:00.790Z,100111.14
2022-12-27T06:57:03.570Z,100117.55
2022-12-27T07:02:06.864Z,100107.89
2022-12-27T07:07:15.280Z,100106.77
2022-12-27T07:12:18.461Z,100114.94
2022-12-27T07:17:21.130Z,100120.14
2022-12-27T07:22:23.837Z,100131.70
2022-12-27T07:27:26.608Z,100135.84
2022-12-27T07:32:29.313Z,100147.59
2022-12-27T07:37:32.054Z,100160.91
2022-12-27T07:42:34.790Z,100168.71
2022-12-27T07:47:50.153Z,100175.62
2022-12-27T07:52:52.902Z,100177.80
2022-12-27T07:57:55.641Z,100180.33
2022-12-27T08:02:58.398Z,100182.52
2022-12-27T08:08:03.555Z,100189.37
2022-12-27T08:13:06.556Z,100196.19
2022-12-27T08:18:09.720Z,100200.61
2022-12-27T08:23:12.330Z,100199.84
2022-12-27T08:28:18.421Z,100210.88
2022-12-27T08:33:21.122Z,100211.06
2022-12-27T08:38:23.956Z,100208.63
2022-12-27T08:43:26.815Z,100205.98
2022-12-27T08:48:32.532Z,100210.40
2022-12-27T08:53:35.806Z,100210.48
2022-12-27T08:58:38.494Z,100217.88
2022-12-27T09:03:41.269Z,100220.79
2022-12-27T09:08:46.014Z,100223.70
2022-12-27T09:13:49.120Z,100229.79
2022-12-27T09:18:54.050Z,100241.23
2022-12-27T09:23:57.065Z,100244.19
2022-12-27T09:29:00.574Z,100243.65
2022-12-27T09:34:03.431Z,100241.48
2022-12-27T09:39:06.451Z,100243.32
2022-12-27T09:44:16.441Z,100249.91
2022-12-27T09:49:41.367Z,100265.32
2022-12-27T09:55:04.348Z,100261.20
2022-12-27T10:00:32.766Z,100263.30
2022-12-27T10:05:39.714Z,100258.16
2022-12-27T10:10:54.084Z,100251.18
2022-12-27T10:16:04.788Z,100249.23
2022-12-27T10:21:17.994Z,100250.92
2022-12-27T10:26:21.226Z,100256.39
2022-12-27T10:31:25.193Z,100261.73
2022-12-27T10:36:31.007Z,100263.66
2022-12-27T10:41:54.249Z,100264.20
2022-12-27T10:46:57.436Z,100259.02
2022-12-27T10:52:11.002Z,100260.33
2022-12-27T10:57:27.858Z,100262.14
2022-12-27T11:02:30.686Z,100262.54
2022-12-27T11:07:34.682Z,100259.48
2022-12-27T11:12:37.926Z,100258.09
2022-12-27T11:17:49.335Z,100264.91
2022-12-27T11:22:58.190Z,100266.14
2022-12-27T11:28:05.355Z,100269.27
2022-12-27T11:33:42.098Z,100270.99
2022-12-27T11:38:45.403Z,100275.45
2022-12-27T11:43:52.432Z,100277.99
2022-12-27T11:48:58.727Z,100282.98
2022-12-27T11:54:07.544Z,100282.18
2022-12-27T11:59:25.675Z,100281.41
2022-12-27T12:04:51.002Z,100282.64
2022-12-27T12:10:24.781Z,100292.68
2022-12-27T12:16:04.054Z,100289.74
2022-12-27T12:21:57.673Z,100300.52
2022-12-27T12:27:24.819Z,100300.64
2022-12-27T12:32:44.719Z,100293.38
2022-12-27T12:38:04.362Z,100298.30
2022-12-27T12:43:27.285Z,100297.81
2022-12-27T12:48:42.151Z,100305.66
2022-12-27T12:54:02.762Z,100321.85
2022-12-27T12:59:24.085Z,100329.05
2022-12-27T13:04:42.060Z,100325.48
2022-12-27T13:10:15.427Z,100327.29
2022-12-27T13:15:33.238Z,100330.84
2022-12-27T13:20:35.944Z,100327.43
2022-12-27T13:26:03.116Z,100330.06
2022-12-27T13:31:10.516Z,100332.33
2022-12-27T13:36:24.264Z,100332.15
2022-12-27T13:41:42.127Z,100337.52
2022-12-27T13:47:05.487Z,100336.69
2022-12-27T13:52:59.447Z,100338.30
2022-12-27T13:58:27.997Z,100336.99
2022-12-27T14:03:33.553Z,100336.17
2022-12-27T14:09:15.110Z,100347.14
2022-12-27T14:14:20.244Z,100357.40
2022-12-27T14:19:44.727Z,100357.94
2022-12-27T14:25:21.130Z,100356.89
2022-12-27T14:30:42.023Z,100359.83
2022-12-27T14:36:16.548Z,100369.86
2022-12-27T14:41:22.179Z,100376.25
2022-12-27T14:46:30.795Z,100376.95
2022-12-27T14:52:03.624Z,100365.19
2022-12-27T14:57:24.519Z,100367.98
2022-12-27T15:02:57.503Z,100373.17
2022-12-27T15:08:19.821Z,100383.38
2022-12-27T15:13:40.722Z,100388.40
2022-12-27T15:18:49.476Z,100385.27
2022-12-27T15:24:01.094Z,100390.29
2022-12-27T15:29:22.336Z,100396.69
2022-12-27T15:34:41.195Z,100398.23
2022-12-27T15:39:43.863Z,100404.11
2022-12-27T15:45:05.439Z,100407.23
2022-12-27T15:50:26.589Z,100414.48
2022-12-27T15:55:35.247Z,100420.02
2022-12-27T16:00:38.583Z,100424.16
2022-12-27T16:05:41.161Z,100426.74
2022-12-27T16:10:49.730Z,100434.37
2022-12-27T16:15:54.443Z,100436.80
2022-12-27T16:21:11.040Z,100439.05
2022-12-27T16:26:19.782Z,100444.77
2022-12-27T16:31:26.421Z,100447.88
2022-12-27T16:36:36.266Z,100456.88
2022-12-27T16:41:54.440Z,100462.59
2022-12-27T16:47:03.837Z,100477.11
2022-12-27T16:52:12.751Z,100478.14
2022-12-27T16:57:24.440Z,100486.79
2022-12-27T17:02:40.031Z,100493.55
2022-12-27T17:07:55.920Z,100498.73
2022-12-27T17:13:16.102Z,100503.92
2022-12-27T17:18:38.575Z,100514.30
2022-12-27T17:23:46.096Z,100521.57
2022-12-27T17:29:15.145Z,100531.95
2022-12-27T17:34:36.861Z,100535.76
2022-12-27T17:40:18.939Z,100541.81
2022-12-27T17:45:41.922Z,100550.81
2022-12-27T17:50:46.568Z,100550.80
2022-12-27T17:56:41.698Z,100555.65
2022-12-27T18:01:49.618Z,100562.05
2022-12-27T18:07:02.123Z,100569.84
2022-12-27T18:12:11.914Z,100576.77
2022-12-27T18:17:29.690Z,100574.86
2022-12-27T18:22:32.394Z,100584.39
2022-12-27T18:27:35.207Z,100585.77
2022-12-27T18:32:37.940Z,100586.83
2022-12-27T18:37:40.720Z,100593.23
2022-12-27T18:42:45.039Z,100598.08
2022-12-27T18:47:50.675Z,100603.11
2022-12-27T18:53:05.842Z,100606.92
2022-12-27T18:58:20.875Z,100614.70
2022-12-27T19:03:23.929Z,100619.56
2022-12-27T19:08:35.882Z,100619.04
2022-12-27T19:13:50.434Z,100619.40
2022-12-27T19:18:56.407Z,100629.25
2022-12-27T19:24:19.613Z,100629.89
2022-12-27T19:29:28.599Z,100633.13
2022-12-27T19:34:42.779Z,100635.70
2022-12-27T19:39:47.807Z,100644.48
2022-12-27T19:44:50.570Z,100649.11
2022-12-27T19:49:53.579Z,100652.36
2022-12-27T19:55:04.844Z,100660.27
2022-12-27T20:00:16.821Z,100655.05
2022-12-27T20:06:14.443Z,100655.13
2022-12-27T20:10:42.233Z,100660.09
2022-12-27T20:15:45.005Z,100655.63
2022-12-27T20:20:48.664Z,100661.67
2022-12-27T20:25:51.391Z,100663.88
2022-12-27T20:30:54.431Z,100665.19
2022-12-27T20:35:58.276Z,100656.80
2022-12-27T20:41:13.315Z,100665.38
2022-12-27T20:46:17.939Z,100674.64
2022-12-27T20:51:27.510Z,100667.36
2022-12-27T20:56:31.052Z,100669.21
2022-12-27T21:01:33.878Z,100669.52
2022-12-27T21:06:37.411Z,100668.08
2022-12-27T21:11:40.150Z,100673.20
2022-12-27T21:16:42.862Z,100674.38
2022-12-27T21:21:45.652Z,100671.42
2022-12-27T21:26:54.575Z,100667.39
2022-12-27T21:31:59.370Z,100672.52
2022-12-27T21:37:07.456Z,100667.31
2022-12-27T21:42:14.651Z,100669.02
2022-12-27T21:47:17.362Z,100662.96
2022-12-27T21:52:20.073Z,100663.27
2022-12-27T21:57:22.803Z,100660.06
2022-12-27T22:02:25.677Z,100665.80
2022-12-27T22:07:28.628Z,100669.93
2022-12-27T22:12:31.359Z,100671.15
2022-12-27T22:17:34.095Z,100669.10
2022-12-27T22:22:36.840Z,100672.88
2022-12-27T22:27:39.541Z,100670.15
2022-12-27T22:32:42.250Z,100668.99
2022-12-27T22:37:44.998Z,100674.55
2022-12-27T22:42:47.729Z,100675.04
2022-12-27T22:47:50.850Z,100670.92
2022-12-27T22:52:53.514Z,100671.46
2022-12-27T22:57:56.285Z,100676.45
2022-12-27T23:02:58.990Z,100675.98
2022-12-27T23:08:04.490Z,100676.84
2022-12-27T23:13:09.710Z,100678.54
2022-12-27T23:18:12.444Z,100676.17
2022-12-27T23:23:15.572Z,100672.27
2022-12-27T23:28:18.353Z,100662.98
2022-12-27T23:33:21.173Z,100666.80
2022-12-27T23:38:23.929Z,100668.77
2022-12-27T23:43:53.279Z,100674.35
2022-12-27T23:49:00.832Z,100679.20
2022-12-27T23:54:03.675Z,100680.91
2022-12-27T23:59:08.245Z,100674.22
